sensor_id;sensor_type;location;lat;lon;timestamp;P1;durP1;ratioP1;P2;durP2;ratioP2
30948;SDS011;17637;51.984;21.208;2024-03-08T00:02:03;146.02;;;77.13;;
30948;SDS011;17637;51.984;21.208;2024-03-08T00:04:35;159.02;;;82.28;;
30948;SDS011;17637;51.984;21.208;2024-03-08T00:07:06;168.68;;;84.85;;
30948;SDS011;17637;51.984;21.208;2024-03-08T00:09:38;184.38;;;92.80;;
30948;SDS011;17637;51.984;21.208;2024-03-08T00:12:10;177.52;;;91.10;;
30948;SDS011;17637;51.984;21.208;2024-03-08T00:14:42;173.73;;;88.15;;
30948;SDS011;17637;51.984;21.208;2024-03-08T00:17:13;190.27;;;95.70;;
30948;SDS011;17637;51.984;21.208;2024-03-08T00:19:47;190.43;;;97.00;;
30948;SDS011;17637;51.984;21.208;2024-03-08T00:22:18;175.25;;;84.50;;
30948;SDS011;17637;51.984;21.208;2024-03-08T00:24:50;185.27;;;94.95;;
30948;SDS011;17637;51.984;21.208;2024-03-08T00:27:22;183.10;;;90.20;;
30948;SDS011;17637;51.984;21.208;2024-03-08T00:29:54;174.48;;;89.75;;
30948;SDS011;17637;51.984;21.208;2024-03-08T00:32:26;148.77;;;77.47;;
30948;SDS011;17637;51.984;21.208;2024-03-08T00:34:59;153.00;;;79.95;;
30948;SDS011;17637;51.984;21.208;2024-03-08T00:37:30;164.20;;;85.13;;
30948;SDS011;17637;51.984;21.208;2024-03-08T00:40:02;158.13;;;78.53;;
30948;SDS011;17637;51.984;21.208;2024-03-08T00:42:34;157.23;;;84.32;;
30948;SDS011;17637;51.984;21.208;2024-03-08T00:45:06;172.70;;;86.00;;
30948;SDS011;17637;51.984;21.208;2024-03-08T00:47:39;147.05;;;76.22;;
30948;SDS011;17637;51.984;21.208;2024-03-08T00:50:11;161.73;;;85.13;;
30948;SDS011;17637;51.984;21.208;2024-03-08T00:52:44;165.55;;;82.68;;
30948;SDS011;17637;51.984;21.208;2024-03-08T00:55:16;167.10;;;84.82;;
30948;SDS011;17637;51.984;21.208;2024-03-08T00:57:48;158.88;;;80.82;;
30948;SDS011;17637;51.984;21.208;2024-03-08T01:00:19;175.20;;;84.43;;
30948;SDS011;17637;51.984;21.208;2024-03-08T01:02:52;186.82;;;91.68;;
30948;SDS011;17637;51.984;21.208;2024-03-08T01:05:24;204.27;;;99.50;;
30948;SDS011;17637;51.984;21.208;2024-03-08T01:07:56;194.48;;;94.60;;
30948;SDS011;17637;51.984;21.208;2024-03-08T01:10:28;203.88;;;98.88;;
30948;SDS011;17637;51.984;21.208;2024-03-08T01:12:59;209.07;;;99.00;;
30948;SDS011;17637;51.984;21.208;2024-03-08T01:15:31;194.30;;;94.45;;
30948;SDS011;17637;51.984;21.208;2024-03-08T01:18:03;187.15;;;94.35;;
30948;SDS011;17637;51.984;21.208;2024-03-08T01:20:35;169.35;;;84.28;;
30948;SDS011;17637;51.984;21.208;2024-03-08T01:23:07;164.23;;;82.60;;
30948;SDS011;17637;51.984;21.208;2024-03-08T01:25:39;165.63;;;85.32;;
30948;SDS011;17637;51.984;21.208;2024-03-08T01:28:11;166.02;;;84.18;;
30948;SDS011;17637;51.984;21.208;2024-03-08T01:30:44;165.57;;;85.03;;
30948;SDS011;17637;51.984;21.208;2024-03-08T01:33:16;158.82;;;80.30;;
30948;SDS011;17637;51.984;21.208;2024-03-08T01:35:48;162.10;;;81.25;;
30948;SDS011;17637;51.984;21.208;2024-03-08T01:38:20;156.27;;;78.60;;
30948;SDS011;17637;51.984;21.208;2024-03-08T01:40:55;162.25;;;83.97;;
30948;SDS011;17637;51.984;21.208;2024-03-08T01:43:27;167.73;;;87.53;;
30948;SDS011;17637;51.984;21.208;2024-03-08T01:45:59;160.60;;;83.35;;
30948;SDS011;17637;51.984;21.208;2024-03-08T01:48:31;165.05;;;85.60;;
30948;SDS011;17637;51.984;21.208;2024-03-08T01:51:04;156.45;;;80.20;;
30948;SDS011;17637;51.984;21.208;2024-03-08T01:53:35;169.68;;;87.47;;
30948;SDS011;17637;51.984;21.208;2024-03-08T01:56:07;168.18;;;90.22;;
30948;SDS011;17637;51.984;21.208;2024-03-08T01:58:43;164.93;;;85.05;;
30948;SDS011;17637;51.984;21.208;2024-03-08T02:01:14;158.40;;;85.00;;
30948;SDS011;17637;51.984;21.208;2024-03-08T02:03:47;162.20;;;85.13;;
30948;SDS011;17637;51.984;21.208;2024-03-08T02:06:18;157.27;;;84.32;;
30948;SDS011;17637;51.984;21.208;2024-03-08T02:08:50;155.32;;;85.53;;
30948;SDS011;17637;51.984;21.208;2024-03-08T02:11:22;155.95;;;86.18;;
30948;SDS011;17637;51.984;21.208;2024-03-08T02:13:54;154.50;;;78.93;;
30948;SDS011;17637;51.984;21.208;2024-03-08T02:16:26;177.18;;;94.68;;
30948;SDS011;17637;51.984;21.208;2024-03-08T02:18:57;168.15;;;86.65;;
30948;SDS011;17637;51.984;21.208;2024-03-08T02:21:29;158.48;;;83.65;;
30948;SDS011;17637;51.984;21.208;2024-03-08T02:24:01;171.85;;;89.95;;
30948;SDS011;17637;51.984;21.208;2024-03-08T02:26:33;180.65;;;93.07;;
30948;SDS011;17637;51.984;21.208;2024-03-08T02:29:04;182.40;;;96.47;;
30948;SDS011;17637;51.984;21.208;2024-03-08T02:31:36;192.18;;;94.22;;
30948;SDS011;17637;51.984;21.208;2024-03-08T02:34:08;193.40;;;97.70;;
30948;SDS011;17637;51.984;21.208;2024-03-08T02:36:41;204.77;;;108.97;;
30948;SDS011;17637;51.984;21.208;2024-03-08T02:39:13;192.52;;;99.68;;
30948;SDS011;17637;51.984;21.208;2024-03-08T02:41:45;195.48;;;101.63;;
30948;SDS011;17637;51.984;21.208;2024-03-08T02:44:16;191.70;;;100.50;;
30948;SDS011;17637;51.984;21.208;2024-03-08T02:46:48;195.48;;;98.47;;
30948;SDS011;17637;51.984;21.208;2024-03-08T02:49:20;198.65;;;101.80;;
30948;SDS011;17637;51.984;21.208;2024-03-08T02:51:55;196.10;;;102.20;;
30948;SDS011;17637;51.984;21.208;2024-03-08T02:54:28;198.98;;;103.72;;
30948;SDS011;17637;51.984;21.208;2024-03-08T02:57:00;184.57;;;96.38;;
30948;SDS011;17637;51.984;21.208;2024-03-08T02:59:31;181.07;;;93.75;;
30948;SDS011;17637;51.984;21.208;2024-03-08T03:02:03;166.70;;;85.57;;
30948;SDS011;17637;51.984;21.208;2024-03-08T03:04:35;168.15;;;83.20;;
30948;SDS011;17637;51.984;21.208;2024-03-08T03:07:06;176.30;;;88.30;;
30948;SDS011;17637;51.984;21.208;2024-03-08T03:09:38;157.52;;;82.43;;
30948;SDS011;17637;51.984;21.208;2024-03-08T03:12:10;158.82;;;82.60;;
30948;SDS011;17637;51.984;21.208;2024-03-08T03:14:41;149.48;;;76.80;;
30948;SDS011;17637;51.984;21.208;2024-03-08T03:17:13;175.00;;;88.00;;
30948;SDS011;17637;51.984;21.208;2024-03-08T03:19:45;174.23;;;90.18;;
30948;SDS011;17637;51.984;21.208;2024-03-08T03:22:21;180.32;;;93.03;;
30948;SDS011;17637;51.984;21.208;2024-03-08T03:24:52;163.93;;;86.95;;
30948;SDS011;17637;51.984;21.208;2024-03-08T03:27:24;144.93;;;75.88;;
30948;SDS011;17637;51.984;21.208;2024-03-08T03:29:56;158.05;;;85.13;;
30948;SDS011;17637;51.984;21.208;2024-03-08T03:32:29;144.05;;;74.28;;
30948;SDS011;17637;51.984;21.208;2024-03-08T03:35:00;142.68;;;75.00;;
30948;SDS011;17637;51.984;21.208;2024-03-08T03:37:36;161.55;;;82.13;;
30948;SDS011;17637;51.984;21.208;2024-03-08T03:40:11;171.57;;;90.35;;
30948;SDS011;17637;51.984;21.208;2024-03-08T03:42:43;167.77;;;87.20;;
30948;SDS011;17637;51.984;21.208;2024-03-08T03:45:15;161.65;;;88.38;;
30948;SDS011;17637;51.984;21.208;2024-03-08T03:47:51;161.60;;;86.00;;
30948;SDS011;17637;51.984;21.208;2024-03-08T03:50:23;158.40;;;84.05;;
30948;SDS011;17637;51.984;21.208;2024-03-08T03:52:55;135.30;;;70.75;;
30948;SDS011;17637;51.984;21.208;2024-03-08T03:55:27;159.60;;;84.53;;
30948;SDS011;17637;51.984;21.208;2024-03-08T03:57:58;161.13;;;87.10;;
30948;SDS011;17637;51.984;21.208;2024-03-08T04:00:32;159.95;;;87.45;;
30948;SDS011;17637;51.984;21.208;2024-03-08T04:03:04;156.90;;;85.28;;
30948;SDS011;17637;51.984;21.208;2024-03-08T04:05:36;155.32;;;83.15;;
30948;SDS011;17637;51.984;21.208;2024-03-08T04:08:08;158.80;;;84.10;;
30948;SDS011;17637;51.984;21.208;2024-03-08T04:10:40;162.77;;;85.72;;
30948;SDS011;17637;51.984;21.208;2024-03-08T04:13:13;159.05;;;81.63;;
30948;SDS011;17637;51.984;21.208;2024-03-08T04:15:47;138.75;;;74.00;;
30948;SDS011;17637;51.984;21.208;2024-03-08T04:18:20;151.18;;;80.57;;
30948;SDS011;17637;51.984;21.208;2024-03-08T04:20:52;147.85;;;81.35;;
30948;SDS011;17637;51.984;21.208;2024-03-08T04:23:24;150.35;;;79.90;;
30948;SDS011;17637;51.984;21.208;2024-03-08T04:25:55;144.65;;;75.45;;
30948;SDS011;17637;51.984;21.208;2024-03-08T04:28:27;147.85;;;77.10;;
30948;SDS011;17637;51.984;21.208;2024-03-08T04:30:59;138.60;;;71.68;;
30948;SDS011;17637;51.984;21.208;2024-03-08T04:33:32;142.20;;;76.40;;
30948;SDS011;17637;51.984;21.208;2024-03-08T04:36:04;146.75;;;77.03;;
30948;SDS011;17637;51.984;21.208;2024-03-08T04:38:36;144.85;;;74.28;;
30948;SDS011;17637;51.984;21.208;2024-03-08T04:41:08;141.43;;;74.07;;
30948;SDS011;17637;51.984;21.208;2024-03-08T04:43:39;125.32;;;65.95;;
30948;SDS011;17637;51.984;21.208;2024-03-08T04:46:11;129.77;;;68.38;;
30948;SDS011;17637;51.984;21.208;2024-03-08T04:48:43;137.40;;;73.47;;
30948;SDS011;17637;51.984;21.208;2024-03-08T04:51:15;137.85;;;74.40;;
30948;SDS011;17637;51.984;21.208;2024-03-08T04:53:47;143.52;;;75.60;;
30948;SDS011;17637;51.984;21.208;2024-03-08T04:56:18;139.77;;;77.18;;
30948;SDS011;17637;51.984;21.208;2024-03-08T04:58:50;146.60;;;75.68;;
30948;SDS011;17637;51.984;21.208;2024-03-08T05:01:22;149.73;;;75.63;;
30948;SDS011;17637;51.984;21.208;2024-03-08T05:03:54;135.93;;;74.20;;
30948;SDS011;17637;51.984;21.208;2024-03-08T05:06:33;141.23;;;74.15;;
30948;SDS011;17637;51.984;21.208;2024-03-08T05:09:05;137.25;;;74.28;;
30948;SDS011;17637;51.984;21.208;2024-03-08T05:11:45;149.25;;;76.63;;
30948;SDS011;17637;51.984;21.208;2024-03-08T05:14:17;140.02;;;73.97;;
30948;SDS011;17637;51.984;21.208;2024-03-08T05:16:52;150.00;;;74.05;;
30948;SDS011;17637;51.984;21.208;2024-03-08T05:19:24;142.60;;;73.93;;
30948;SDS011;17637;51.984;21.208;2024-03-08T05:21:55;139.25;;;71.15;;
30948;SDS011;17637;51.984;21.208;2024-03-08T05:24:27;131.02;;;70.38;;
30948;SDS011;17637;51.984;21.208;2024-03-08T05:26:59;117.68;;;60.85;;
30948;SDS011;17637;51.984;21.208;2024-03-08T05:29:34;120.93;;;64.32;;
30948;SDS011;17637;51.984;21.208;2024-03-08T05:32:06;135.27;;;73.03;;
30948;SDS011;17637;51.984;21.208;2024-03-08T05:34:38;122.85;;;63.83;;
30948;SDS011;17637;51.984;21.208;2024-03-08T05:37:10;139.65;;;71.32;;
30948;SDS011;17637;51.984;21.208;2024-03-08T05:39:42;136.70;;;73.07;;
30948;SDS011;17637;51.984;21.208;2024-03-08T05:42:15;135.00;;;71.40;;
30948;SDS011;17637;51.984;21.208;2024-03-08T05:44:47;124.13;;;66.75;;
30948;SDS011;17637;51.984;21.208;2024-03-08T05:47:19;126.30;;;68.00;;
30948;SDS011;17637;51.984;21.208;2024-03-08T05:49:51;130.85;;;69.72;;
30948;SDS011;17637;51.984;21.208;2024-03-08T05:52:25;130.30;;;67.53;;
30948;SDS011;17637;51.984;21.208;2024-03-08T05:54:57;127.40;;;66.90;;
30948;SDS011;17637;51.984;21.208;2024-03-08T05:57:29;141.68;;;75.63;;
30948;SDS011;17637;51.984;21.208;2024-03-08T06:00:00;138.63;;;78.07;;
30948;SDS011;17637;51.984;21.208;2024-03-08T06:02:32;135.30;;;73.90;;
30948;SDS011;17637;51.984;21.208;2024-03-08T06:05:04;133.48;;;70.60;;
30948;SDS011;17637;51.984;21.208;2024-03-08T06:07:37;128.55;;;71.00;;
30948;SDS011;17637;51.984;21.208;2024-03-08T06:10:12;125.95;;;67.90;;
30948;SDS011;17637;51.984;21.208;2024-03-08T06:12:44;120.18;;;69.68;;
30948;SDS011;17637;51.984;21.208;2024-03-08T06:15:16;107.88;;;58.28;;
30948;SDS011;17637;51.984;21.208;2024-03-08T06:17:48;109.05;;;61.00;;
30948;SDS011;17637;51.984;21.208;2024-03-08T06:20:20;116.10;;;61.92;;
30948;SDS011;17637;51.984;21.208;2024-03-08T06:22:52;117.50;;;66.93;;
30948;SDS011;17637;51.984;21.208;2024-03-08T06:25:24;106.95;;;59.67;;
30948;SDS011;17637;51.984;21.208;2024-03-08T06:27:55;104.40;;;56.92;;
30948;SDS011;17637;51.984;21.208;2024-03-08T06:30:27;98.15;;;55.22;;
30948;SDS011;17637;51.984;21.208;2024-03-08T06:32:59;118.88;;;67.88;;
30948;SDS011;17637;51.984;21.208;2024-03-08T06:35:31;106.00;;;59.33;;
30948;SDS011;17637;51.984;21.208;2024-03-08T06:38:04;108.72;;;61.65;;
30948;SDS011;17637;51.984;21.208;2024-03-08T06:40:35;102.70;;;59.17;;
30948;SDS011;17637;51.984;21.208;2024-03-08T06:43:07;105.80;;;57.33;;
30948;SDS011;17637;51.984;21.208;2024-03-08T06:45:39;106.10;;;60.25;;
30948;SDS011;17637;51.984;21.208;2024-03-08T06:48:10;106.93;;;60.92;;
30948;SDS011;17637;51.984;21.208;2024-03-08T06:50:46;122.22;;;72.10;;
30948;SDS011;17637;51.984;21.208;2024-03-08T06:53:18;108.50;;;62.17;;
30948;SDS011;17637;51.984;21.208;2024-03-08T06:55:54;114.32;;;64.05;;
30948;SDS011;17637;51.984;21.208;2024-03-08T06:58:26;110.32;;;62.38;;
30948;SDS011;17637;51.984;21.208;2024-03-08T07:00:58;116.72;;;66.22;;
30948;SDS011;17637;51.984;21.208;2024-03-08T07:03:32;113.88;;;63.30;;
30948;SDS011;17637;51.984;21.208;2024-03-08T07:06:04;122.40;;;71.65;;
30948;SDS011;17637;51.984;21.208;2024-03-08T07:08:39;125.28;;;74.00;;
30948;SDS011;17637;51.984;21.208;2024-03-08T07:11:11;123.97;;;69.63;;
30948;SDS011;17637;51.984;21.208;2024-03-08T07:13:46;126.60;;;72.78;;
30948;SDS011;17637;51.984;21.208;2024-03-08T07:16:18;117.70;;;65.10;;
30948;SDS011;17637;51.984;21.208;2024-03-08T07:18:50;123.07;;;69.05;;
30948;SDS011;17637;51.984;21.208;2024-03-08T07:21:24;113.45;;;65.90;;
30948;SDS011;17637;51.984;21.208;2024-03-08T07:23:56;114.30;;;65.40;;
30948;SDS011;17637;51.984;21.208;2024-03-08T07:26:38;113.35;;;62.95;;
30948;SDS011;17637;51.984;21.208;2024-03-08T07:29:10;110.55;;;62.45;;
30948;SDS011;17637;51.984;21.208;2024-03-08T07:31:41;111.38;;;62.72;;
30948;SDS011;17637;51.984;21.208;2024-03-08T07:34:13;101.10;;;58.95;;
30948;SDS011;17637;51.984;21.208;2024-03-08T07:36:44;109.82;;;62.53;;
30948;SDS011;17637;51.984;21.208;2024-03-08T07:39:16;102.97;;;60.95;;
30948;SDS011;17637;51.984;21.208;2024-03-08T07:41:49;119.25;;;65.38;;
30948;SDS011;17637;51.984;21.208;2024-03-08T07:44:24;115.35;;;68.28;;
30948;SDS011;17637;51.984;21.208;2024-03-08T07:46:55;108.93;;;63.50;;
30948;SDS011;17637;51.984;21.208;2024-03-08T07:49:28;97.97;;;57.60;;
30948;SDS011;17637;51.984;21.208;2024-03-08T07:52:00;95.80;;;58.08;;
30948;SDS011;17637;51.984;21.208;2024-03-08T07:54:31;98.28;;;58.20;;
30948;SDS011;17637;51.984;21.208;2024-03-08T07:57:03;105.40;;;62.35;;
30948;SDS011;17637;51.984;21.208;2024-03-08T07:59:35;73.38;;;43.55;;
30948;SDS011;17637;51.984;21.208;2024-03-08T08:02:07;63.47;;;38.15;;
30948;SDS011;17637;51.984;21.208;2024-03-08T08:04:39;57.67;;;35.38;;
30948;SDS011;17637;51.984;21.208;2024-03-08T08:07:11;61.90;;;37.22;;
30948;SDS011;17637;51.984;21.208;2024-03-08T08:09:42;66.75;;;39.10;;
30948;SDS011;17637;51.984;21.208;2024-03-08T08:12:14;56.47;;;33.83;;
30948;SDS011;17637;51.984;21.208;2024-03-08T08:14:46;59.25;;;34.40;;
30948;SDS011;17637;51.984;21.208;2024-03-08T08:17:18;54.80;;;34.03;;
30948;SDS011;17637;51.984;21.208;2024-03-08T08:19:49;60.15;;;35.45;;
30948;SDS011;17637;51.984;21.208;2024-03-08T08:22:21;53.25;;;32.33;;
30948;SDS011;17637;51.984;21.208;2024-03-08T08:24:54;58.30;;;36.00;;
30948;SDS011;17637;51.984;21.208;2024-03-08T08:27:25;56.45;;;33.53;;
30948;SDS011;17637;51.984;21.208;2024-03-08T08:29:57;55.30;;;33.63;;
30948;SDS011;17637;51.984;21.208;2024-03-08T08:32:29;54.80;;;30.60;;
30948;SDS011;17637;51.984;21.208;2024-03-08T08:35:01;42.95;;;25.85;;
30948;SDS011;17637;51.984;21.208;2024-03-08T08:37:33;34.25;;;20.05;;
30948;SDS011;17637;51.984;21.208;2024-03-08T08:40:08;45.22;;;28.92;;
30948;SDS011;17637;51.984;21.208;2024-03-08T08:42:41;50.33;;;31.45;;
30948;SDS011;17637;51.984;21.208;2024-03-08T08:45:14;56.95;;;33.25;;
30948;SDS011;17637;51.984;21.208;2024-03-08T08:47:52;48.47;;;30.77;;
30948;SDS011;17637;51.984;21.208;2024-03-08T08:50:24;59.13;;;34.10;;
30948;SDS011;17637;51.984;21.208;2024-03-08T08:52:56;59.00;;;35.25;;
30948;SDS011;17637;51.984;21.208;2024-03-08T08:55:27;45.50;;;23.80;;
30948;SDS011;17637;51.984;21.208;2024-03-08T08:58:00;49.22;;;30.35;;
30948;SDS011;17637;51.984;21.208;2024-03-08T09:00:33;50.28;;;30.73;;
30948;SDS011;17637;51.984;21.208;2024-03-08T09:03:06;51.42;;;32.83;;
30948;SDS011;17637;51.984;21.208;2024-03-08T09:05:38;39.08;;;24.63;;
30948;SDS011;17637;51.984;21.208;2024-03-08T09:08:11;37.42;;;22.73;;
30948;SDS011;17637;51.984;21.208;2024-03-08T09:10:44;34.70;;;21.63;;
30948;SDS011;17637;51.984;21.208;2024-03-08T09:13:18;34.92;;;21.42;;
30948;SDS011;17637;51.984;21.208;2024-03-08T09:16:02;36.88;;;23.33;;
30948;SDS011;17637;51.984;21.208;2024-03-08T09:18:36;38.92;;;23.95;;
30948;SDS011;17637;51.984;21.208;2024-03-08T09:21:08;33.67;;;20.38;;
30948;SDS011;17637;51.984;21.208;2024-03-08T09:23:44;31.20;;;18.13;;
30948;SDS011;17637;51.984;21.208;2024-03-08T09:26:16;32.22;;;18.90;;
30948;SDS011;17637;51.984;21.208;2024-03-08T09:28:59;33.70;;;19.85;;
30948;SDS011;17637;51.984;21.208;2024-03-08T09:31:31;37.00;;;22.85;;
30948;SDS011;17637;51.984;21.208;2024-03-08T09:34:02;33.78;;;21.88;;
30948;SDS011;17637;51.984;21.208;2024-03-08T09:36:34;31.83;;;21.20;;
30948;SDS011;17637;51.984;21.208;2024-03-08T09:39:06;28.77;;;16.80;;
30948;SDS011;17637;51.984;21.208;2024-03-08T09:41:39;24.08;;;15.50;;
30948;SDS011;17637;51.984;21.208;2024-03-08T09:44:10;21.65;;;14.63;;
30948;SDS011;17637;51.984;21.208;2024-03-08T09:46:42;26.25;;;14.02;;
30948;SDS011;17637;51.984;21.208;2024-03-08T09:49:14;20.98;;;13.55;;
30948;SDS011;17637;51.984;21.208;2024-03-08T09:51:46;28.17;;;14.77;;
30948;SDS011;17637;51.984;21.208;2024-03-08T09:54:18;28.77;;;16.80;;
30948;SDS011;17637;51.984;21.208;2024-03-08T09:56:54;21.00;;;13.90;;
30948;SDS011;17637;51.984;21.208;2024-03-08T09:59:26;20.10;;;12.75;;
30948;SDS011;17637;51.984;21.208;2024-03-08T10:01:58;18.55;;;11.70;;
30948;SDS011;17637;51.984;21.208;2024-03-08T10:04:31;23.17;;;13.90;;
30948;SDS011;17637;51.984;21.208;2024-03-08T10:07:03;20.73;;;12.82;;
30948;SDS011;17637;51.984;21.208;2024-03-08T10:09:35;21.50;;;12.65;;
30948;SDS011;17637;51.984;21.208;2024-03-08T10:12:07;16.67;;;10.98;;
30948;SDS011;17637;51.984;21.208;2024-03-08T10:14:39;20.98;;;12.77;;
30948;SDS011;17637;51.984;21.208;2024-03-08T10:17:12;19.98;;;12.25;;
30948;SDS011;17637;51.984;21.208;2024-03-08T10:19:50;20.70;;;12.38;;
30948;SDS011;17637;51.984;21.208;2024-03-08T10:22:23;20.15;;;12.35;;
30948;SDS011;17637;51.984;21.208;2024-03-08T10:24:56;17.02;;;11.75;;
30948;SDS011;17637;51.984;21.208;2024-03-08T10:27:29;19.45;;;12.15;;
30948;SDS011;17637;51.984;21.208;2024-03-08T10:30:00;18.30;;;10.88;;
30948;SDS011;17637;51.984;21.208;2024-03-08T10:32:34;17.48;;;12.95;;
30948;SDS011;17637;51.984;21.208;2024-03-08T10:35:06;16.55;;;11.20;;
30948;SDS011;17637;51.984;21.208;2024-03-08T10:40:17;19.92;;;12.30;;
30948;SDS011;17637;51.984;21.208;2024-03-08T10:45:33;19.98;;;12.00;;
30948;SDS011;17637;51.984;21.208;2024-03-08T10:48:13;18.08;;;10.75;;
30948;SDS011;17637;51.984;21.208;2024-03-08T10:50:49;17.65;;;12.43;;
30948;SDS011;17637;51.984;21.208;2024-03-08T10:53:21;18.13;;;12.07;;
30948;SDS011;17637;51.984;21.208;2024-03-08T10:55:54;21.75;;;12.45;;
30948;SDS011;17637;51.984;21.208;2024-03-08T10:58:27;18.38;;;11.73;;
30948;SDS011;17637;51.984;21.208;2024-03-08T11:01:00;19.77;;;12.23;;
30948;SDS011;17637;51.984;21.208;2024-03-08T11:08:45;19.15;;;11.82;;
30948;SDS011;17637;51.984;21.208;2024-03-08T11:11:31;14.95;;;10.57;;
30948;SDS011;17637;51.984;21.208;2024-03-08T11:14:05;18.63;;;12.05;;
30948;SDS011;17637;51.984;21.208;2024-03-08T11:16:37;17.80;;;12.23;;
30948;SDS011;17637;51.984;21.208;2024-03-08T11:21:44;17.30;;;11.15;;
30948;SDS011;17637;51.984;21.208;2024-03-08T11:24:15;16.95;;;11.43;;
30948;SDS011;17637;51.984;21.208;2024-03-08T11:26:47;17.17;;;11.70;;
30948;SDS011;17637;51.984;21.208;2024-03-08T11:32:15;16.42;;;10.57;;
30948;SDS011;17637;51.984;21.208;2024-03-08T11:34:49;19.95;;;11.30;;
30948;SDS011;17637;51.984;21.208;2024-03-08T11:37:22;18.27;;;11.60;;
30948;SDS011;17637;51.984;21.208;2024-03-08T11:39:54;15.63;;;10.93;;
30948;SDS011;17637;51.984;21.208;2024-03-08T11:42:35;13.85;;;9.60;;
30948;SDS011;17637;51.984;21.208;2024-03-08T11:45:10;14.27;;;10.00;;
30948;SDS011;17637;51.984;21.208;2024-03-08T11:47:45;14.75;;;9.80;;
30948;SDS011;17637;51.984;21.208;2024-03-08T11:50:21;14.55;;;9.00;;
30948;SDS011;17637;51.984;21.208;2024-03-08T11:53:02;12.30;;;8.32;;
30948;SDS011;17637;51.984;21.208;2024-03-08T11:55:34;11.45;;;8.77;;
30948;SDS011;17637;51.984;21.208;2024-03-08T11:58:07;12.75;;;8.52;;
30948;SDS011;17637;51.984;21.208;2024-03-08T12:00:39;12.95;;;8.52;;
30948;SDS011;17637;51.984;21.208;2024-03-08T12:03:12;15.85;;;9.23;;
30948;SDS011;17637;51.984;21.208;2024-03-08T12:05:44;11.40;;;8.30;;
30948;SDS011;17637;51.984;21.208;2024-03-08T12:08:17;13.93;;;8.65;;
30948;SDS011;17637;51.984;21.208;2024-03-08T12:10:49;11.43;;;7.75;;
30948;SDS011;17637;51.984;21.208;2024-03-08T12:13:21;11.85;;;8.25;;
30948;SDS011;17637;51.984;21.208;2024-03-08T12:15:53;11.65;;;8.63;;
30948;SDS011;17637;51.984;21.208;2024-03-08T12:18:25;17.52;;;11.18;;
30948;SDS011;17637;51.984;21.208;2024-03-08T12:24:03;17.60;;;10.93;;
30948;SDS011;17637;51.984;21.208;2024-03-08T12:26:36;19.17;;;14.32;;
30948;SDS011;17637;51.984;21.208;2024-03-08T12:29:15;21.15;;;13.98;;
30948;SDS011;17637;51.984;21.208;2024-03-08T12:31:51;78.80;;;71.13;;
30948;SDS011;17637;51.984;21.208;2024-03-08T12:34:24;16.48;;;13.38;;
30948;SDS011;17637;51.984;21.208;2024-03-08T12:36:56;14.57;;;11.25;;
30948;SDS011;17637;51.984;21.208;2024-03-08T12:39:29;14.23;;;9.52;;
30948;SDS011;17637;51.984;21.208;2024-03-08T12:42:01;22.48;;;11.88;;
30948;SDS011;17637;51.984;21.208;2024-03-08T12:44:33;20.10;;;12.52;;
30948;SDS011;17637;51.984;21.208;2024-03-08T12:47:04;20.05;;;13.40;;
30948;SDS011;17637;51.984;21.208;2024-03-08T12:49:36;19.00;;;13.63;;
30948;SDS011;17637;51.984;21.208;2024-03-08T12:52:08;21.60;;;13.77;;
30948;SDS011;17637;51.984;21.208;2024-03-08T12:54:41;18.42;;;12.68;;
30948;SDS011;17637;51.984;21.208;2024-03-08T12:57:14;18.95;;;13.15;;
30948;SDS011;17637;51.984;21.208;2024-03-08T12:59:45;17.30;;;12.80;;
30948;SDS011;17637;51.984;21.208;2024-03-08T13:02:17;19.00;;;12.45;;
30948;SDS011;17637;51.984;21.208;2024-03-08T13:04:49;21.10;;;13.65;;
30948;SDS011;17637;51.984;21.208;2024-03-08T13:07:27;19.38;;;13.50;;
30948;SDS011;17637;51.984;21.208;2024-03-08T13:09:58;16.58;;;12.07;;
30948;SDS011;17637;51.984;21.208;2024-03-08T13:12:31;19.38;;;14.02;;
30948;SDS011;17637;51.984;21.208;2024-03-08T13:15:03;18.98;;;12.95;;
30948;SDS011;17637;51.984;21.208;2024-03-08T13:17:36;22.65;;;13.23;;
30948;SDS011;17637;51.984;21.208;2024-03-08T13:20:08;20.67;;;13.00;;
30948;SDS011;17637;51.984;21.208;2024-03-08T13:22:40;16.38;;;11.50;;
30948;SDS011;17637;51.984;21.208;2024-03-08T13:25:12;18.38;;;12.30;;
30948;SDS011;17637;51.984;21.208;2024-03-08T13:27:44;19.42;;;12.80;;
30948;SDS011;17637;51.984;21.208;2024-03-08T13:30:17;17.13;;;11.05;;
30948;SDS011;17637;51.984;21.208;2024-03-08T13:32:51;19.80;;;12.70;;
30948;SDS011;17637;51.984;21.208;2024-03-08T13:35:23;20.10;;;11.85;;
30948;SDS011;17637;51.984;21.208;2024-03-08T13:37:58;16.42;;;12.13;;
30948;SDS011;17637;51.984;21.208;2024-03-08T13:40:30;17.50;;;11.55;;
30948;SDS011;17637;51.984;21.208;2024-03-08T13:43:02;15.60;;;10.85;;
30948;SDS011;17637;51.984;21.208;2024-03-08T13:45:35;16.30;;;11.07;;
30948;SDS011;17637;51.984;21.208;2024-03-08T13:48:09;17.27;;;12.20;;
30948;SDS011;17637;51.984;21.208;2024-03-08T13:50:44;16.25;;;11.10;;
30948;SDS011;17637;51.984;21.208;2024-03-08T13:53:16;17.17;;;12.57;;
30948;SDS011;17637;51.984;21.208;2024-03-08T13:55:48;20.80;;;12.35;;
30948;SDS011;17637;51.984;21.208;2024-03-08T13:58:19;16.00;;;12.05;;
30948;SDS011;17637;51.984;21.208;2024-03-08T14:00:51;17.27;;;12.60;;
30948;SDS011;17637;51.984;21.208;2024-03-08T14:03:23;17.65;;;12.02;;
30948;SDS011;17637;51.984;21.208;2024-03-08T14:05:58;20.00;;;13.98;;
30948;SDS011;17637;51.984;21.208;2024-03-08T14:08:30;21.42;;;14.02;;
30948;SDS011;17637;51.984;21.208;2024-03-08T14:11:04;19.88;;;13.27;;
30948;SDS011;17637;51.984;21.208;2024-03-08T14:13:44;18.47;;;12.67;;
30948;SDS011;17637;51.984;21.208;2024-03-08T14:16:17;20.13;;;14.45;;
30948;SDS011;17637;51.984;21.208;2024-03-08T14:18:48;20.90;;;12.63;;
30948;SDS011;17637;51.984;21.208;2024-03-08T14:21:20;24.63;;;16.75;;
30948;SDS011;17637;51.984;21.208;2024-03-08T14:23:52;24.80;;;12.68;;
30948;SDS011;17637;51.984;21.208;2024-03-08T14:26:23;19.48;;;12.00;;
30948;SDS011;17637;51.984;21.208;2024-03-08T14:28:55;16.27;;;11.15;;
30948;SDS011;17637;51.984;21.208;2024-03-08T14:31:28;22.52;;;12.95;;
30948;SDS011;17637;51.984;21.208;2024-03-08T14:34:01;18.58;;;12.30;;
30948;SDS011;17637;51.984;21.208;2024-03-08T14:36:34;23.05;;;14.32;;
30948;SDS011;17637;51.984;21.208;2024-03-08T14:39:06;21.27;;;11.95;;
30948;SDS011;17637;51.984;21.208;2024-03-08T14:41:39;18.88;;;12.10;;
30948;SDS011;17637;51.984;21.208;2024-03-08T14:44:11;24.25;;;16.65;;
30948;SDS011;17637;51.984;21.208;2024-03-08T14:46:43;18.23;;;12.50;;
30948;SDS011;17637;51.984;21.208;2024-03-08T14:49:15;21.10;;;13.90;;
30948;SDS011;17637;51.984;21.208;2024-03-08T14:51:46;18.45;;;12.80;;
30948;SDS011;17637;51.984;21.208;2024-03-08T14:54:18;25.40;;;15.18;;